sensor_id;sensor_type;location;lat;lon;timestamp;pressure;altitude;pressure_sealevel;temperature;humidity
78317;BME280;67572;50.930;18.276;2023-03-31T00:02:40;98196.06;;;8.34;81.55
78317;BME280;67572;50.930;18.276;2023-03-31T00:05:44;98199.59;;;8.35;80.99
78317;BME280;67572;50.930;18.276;2023-03-31T00:08:49;98192.19;;;8.27;81.42
78317;BME280;67572;50.930;18.276;2023-03-31T00:11:54;98193.03;;;8.28;81.08
78317;BME280;67572;50.930;18.276;2023-03-31T00:14:58;98191.19;;;8.17;81.57
78317;BME280;67572;50.930;18.276;2023-03-31T00:18:04;98189.19;;;8.08;81.63
78317;BME280;67572;50.930;18.276;2023-03-31T00:21:09;98183.06;;;8.07;80.87
78317;BME280;67572;50.930;18.276;2023-03-31T00:24:16;98193.25;;;8.01;80.85
78317;BME280;67572;50.930;18.276;2023-03-31T00:27:20;98189.03;;;7.98;81.72
78317;BME280;67572;50.930;18.276;2023-03-31T00:30:23;98192.25;;;7.91;81.21
78317;BME280;67572;50.930;18.276;2023-03-31T00:33:28;98189.59;;;7.91;81.83
78317;BME280;67572;50.930;18.276;2023-03-31T00:36:32;98188.03;;;7.88;81.89
78317;BME280;67572;50.930;18.276;2023-03-31T00:39:37;98194.22;;;8.00;81.66
78317;BME280;67572;50.930;18.276;2023-03-31T00:42:43;98191.84;;;7.84;81.76
78317;BME280;67572;50.930;18.276;2023-03-31T00:45:47;98193.88;;;7.81;81.32
78317;BME280;67572;50.930;18.276;2023-03-31T00:48:54;98189.63;;;7.78;81.71
78317;BME280;67572;50.930;18.276;2023-03-31T00:52:01;98188.69;;;7.79;81.09
78317;BME280;67572;50.930;18.276;2023-03-31T00:55:10;98183.56;;;7.65;82.02
78317;BME280;67572;50.930;18.276;2023-03-31T00:58:14;98183.34;;;7.55;82.22
78317;BME280;67572;50.930;18.276;2023-03-31T01:01:22;98179.72;;;7.69;81.85
78317;BME280;67572;50.930;18.276;2023-03-31T01:04:31;98178.16;;;7.54;81.43
78317;BME280;67572;50.930;18.276;2023-03-31T01:07:38;98173.41;;;7.46;81.92
78317;BME280;67572;50.930;18.276;2023-03-31T01:10:49;98181.44;;;7.57;81.63
78317;BME280;67572;50.930;18.276;2023-03-31T01:13:54;98180.31;;;7.36;82.06
78317;BME280;67572;50.930;18.276;2023-03-31T01:16:58;98179.25;;;7.38;83.02
78317;BME280;67572;50.930;18.276;2023-03-31T01:20:12;98177.34;;;7.40;82.67
78317;BME280;67572;50.930;18.276;2023-03-31T01:23:51;98166.50;;;7.19;83.08
78317;BME280;67572;50.930;18.276;2023-03-31T01:27:11;98159.72;;;7.15;83.40
78317;BME280;67572;50.930;18.276;2023-03-31T01:41:41;98166.72;;;7.04;83.97
78317;BME280;67572;50.930;18.276;2023-03-31T01:44:52;98175.94;;;6.98;84.10
78317;BME280;67572;50.930;18.276;2023-03-31T01:48:04;98167.47;;;7.06;83.95
78317;BME280;67572;50.930;18.276;2023-03-31T01:51:14;98163.56;;;6.86;84.51
78317;BME280;67572;50.930;18.276;2023-03-31T01:54:23;98165.00;;;7.03;84.66
78317;BME280;67572;50.930;18.276;2023-03-31T01:57:35;98159.34;;;6.83;84.59
78317;BME280;67572;50.930;18.276;2023-03-31T02:00:44;98171.38;;;6.75;84.59
78317;BME280;67572;50.930;18.276;2023-03-31T02:03:56;98160.94;;;6.73;85.50
78317;BME280;67572;50.930;18.276;2023-03-31T02:07:03;98169.78;;;6.59;85.41
78317;BME280;67572;50.930;18.276;2023-03-31T02:10:11;98161.97;;;6.58;85.64
78317;BME280;67572;50.930;18.276;2023-03-31T02:13:17;98161.84;;;6.59;85.77
78317;BME280;67572;50.930;18.276;2023-03-31T02:16:25;98162.88;;;6.57;85.86
78317;BME280;67572;50.930;18.276;2023-03-31T02:19:34;98152.97;;;6.48;85.98
78317;BME280;67572;50.930;18.276;2023-03-31T02:22:44;98156.69;;;6.58;85.88
78317;BME280;67572;50.930;18.276;2023-03-31T02:25:53;98156.47;;;6.61;85.82
78317;BME280;67572;50.930;18.276;2023-03-31T02:29:01;98155.94;;;6.68;85.68
78317;BME280;67572;50.930;18.276;2023-03-31T02:32:10;98160.28;;;6.70;85.52
78317;BME280;67572;50.930;18.276;2023-03-31T02:35:18;98152.03;;;6.74;85.79
78317;BME280;67572;50.930;18.276;2023-03-31T02:38:24;98160.09;;;6.73;85.00
78317;BME280;67572;50.930;18.276;2023-03-31T02:41:27;98151.50;;;6.69;85.37
78317;BME280;67572;50.930;18.276;2023-03-31T02:44:32;98146.53;;;6.64;85.70
78317;BME280;67572;50.930;18.276;2023-03-31T02:47:36;98148.22;;;6.53;85.46
78317;BME280;67572;50.930;18.276;2023-03-31T02:51:14;98148.31;;;6.38;85.83
78317;BME280;67572;50.930;18.276;2023-03-31T02:54:39;98145.03;;;6.35;86.25
78317;BME280;67572;50.930;18.276;2023-03-31T02:58:17;98136.06;;;6.37;86.40
78317;BME280;67572;50.930;18.276;2023-03-31T03:01:42;98142.88;;;6.15;86.44
78317;BME280;67572;50.930;18.276;2023-03-31T03:05:04;98145.63;;;6.26;87.03
78317;BME280;67572;50.930;18.276;2023-03-31T03:08:25;98141.53;;;6.34;86.52
78317;BME280;67572;50.930;18.276;2023-03-31T03:11:38;98148.59;;;6.34;86.55
78317;BME280;67572;50.930;18.276;2023-03-31T03:14:47;98139.09;;;6.31;86.44
78317;BME280;67572;50.930;18.276;2023-03-31T03:17:55;98137.41;;;6.30;86.60
78317;BME280;67572;50.930;18.276;2023-03-31T03:20:59;98139.09;;;6.31;86.44
78317;BME280;67572;50.930;18.276;2023-03-31T03:24:03;98132.03;;;6.32;86.25
78317;BME280;67572;50.930;18.276;2023-03-31T03:27:07;98125.78;;;6.33;86.15
78317;BME280;67572;50.930;18.276;2023-03-31T03:30:11;98133.19;;;6.28;86.26
78317;BME280;67572;50.930;18.276;2023-03-31T03:33:16;98131.69;;;6.24;86.43
78317;BME280;67572;50.930;18.276;2023-03-31T03:36:20;98132.72;;;6.08;86.38
78317;BME280;67572;50.930;18.276;2023-03-31T03:39:24;98130.81;;;6.10;86.25
78317;BME280;67572;50.930;18.276;2023-03-31T03:42:28;98127.00;;;6.02;86.45
78317;BME280;67572;50.930;18.276;2023-03-31T03:45:31;98119.81;;;6.04;86.39
78317;BME280;67572;50.930;18.276;2023-03-31T03:48:36;98131.44;;;6.01;86.45
78317;BME280;67572;50.930;18.276;2023-03-31T03:51:39;98129.31;;;5.94;86.60
78317;BME280;67572;50.930;18.276;2023-03-31T03:54:43;98116.78;;;5.97;86.62
78317;BME280;67572;50.930;18.276;2023-03-31T03:57:47;98111.16;;;6.02;86.43
78317;BME280;67572;50.930;18.276;2023-03-31T04:00:50;98102.63;;;5.98;86.09
78317;BME280;67572;50.930;18.276;2023-03-31T04:03:55;98101.78;;;5.98;86.81
78317;BME280;67572;50.930;18.276;2023-03-31T04:06:58;98092.50;;;6.05;86.35
78317;BME280;67572;50.930;18.276;2023-03-31T04:10:02;98108.13;;;6.08;86.24
78317;BME280;67572;50.930;18.276;2023-03-31T04:13:05;98096.50;;;6.10;86.26
78317;BME280;67572;50.930;18.276;2023-03-31T04:16:09;98088.28;;;6.15;85.61
78317;BME280;67572;50.930;18.276;2023-03-31T04:19:15;98084.25;;;6.09;85.95
78317;BME280;67572;50.930;18.276;2023-03-31T04:22:19;98077.63;;;6.17;85.81
78317;BME280;67572;50.930;18.276;2023-03-31T04:25:22;98082.28;;;6.13;85.49
78317;BME280;67572;50.930;18.276;2023-03-31T04:28:26;98083.13;;;6.14;85.49
78317;BME280;67572;50.930;18.276;2023-03-31T04:31:36;98081.78;;;6.21;85.79
78317;BME280;67572;50.930;18.276;2023-03-31T04:34:45;98084.47;;;6.19;85.42
78317;BME280;67572;50.930;18.276;2023-03-31T04:37:50;98079.44;;;6.29;85.18
78317;BME280;67572;50.930;18.276;2023-03-31T04:41:00;98074.69;;;6.21;85.11
78317;BME280;67572;50.930;18.276;2023-03-31T04:44:03;98073.00;;;6.20;84.88
78317;BME280;67572;50.930;18.276;2023-03-31T04:47:07;98076.91;;;6.15;85.02
78317;BME280;67572;50.930;18.276;2023-03-31T04:50:12;98076.69;;;6.30;85.17
78317;BME280;67572;50.930;18.276;2023-03-31T04:53:18;98066.25;;;6.29;84.74
78317;BME280;67572;50.930;18.276;2023-03-31T04:56:21;98078.69;;;6.39;84.68
78317;BME280;67572;50.930;18.276;2023-03-31T04:59:25;98065.91;;;6.33;84.44
78317;BME280;67572;50.930;18.276;2023-03-31T05:02:28;98066.97;;;6.31;84.42
78317;BME280;67572;50.930;18.276;2023-03-31T05:05:33;98066.25;;;6.29;84.87
78317;BME280;67572;50.930;18.276;2023-03-31T05:08:37;98066.78;;;6.21;84.42
78317;BME280;67572;50.930;18.276;2023-03-31T05:11:40;98064.97;;;6.34;85.00
78317;BME280;67572;50.930;18.276;2023-03-31T05:14:44;98063.94;;;6.37;84.72
78317;BME280;67572;50.930;18.276;2023-03-31T05:17:47;98061.78;;;6.42;84.42
78317;BME280;67572;50.930;18.276;2023-03-31T05:20:52;98058.00;;;6.46;84.10
78317;BME280;67572;50.930;18.276;2023-03-31T05:23:56;98062.75;;;6.54;83.84
78317;BME280;67572;50.930;18.276;2023-03-31T05:26:59;98055.16;;;6.62;83.65
78317;BME280;67572;50.930;18.276;2023-03-31T05:30:04;98047.41;;;6.72;83.65
78317;BME280;67572;50.930;18.276;2023-03-31T05:33:09;98050.34;;;6.80;83.63
78317;BME280;67572;50.930;18.276;2023-03-31T05:36:15;98052.28;;;6.78;82.96
78317;BME280;67572;50.930;18.276;2023-03-31T05:39:19;98052.06;;;6.81;83.10
78317;BME280;67572;50.930;18.276;2023-03-31T05:42:23;98056.59;;;6.91;83.08
78317;BME280;67572;50.930;18.276;2023-03-31T05:45:26;98052.25;;;6.90;83.14
78317;BME280;67572;50.930;18.276;2023-03-31T05:48:30;98048.97;;;7.00;82.09
78317;BME280;67572;50.930;18.276;2023-03-31T05:51:34;98050.31;;;7.05;82.33
78317;BME280;67572;50.930;18.276;2023-03-31T05:54:38;98045.75;;;7.20;82.00
78317;BME280;67572;50.930;18.276;2023-03-31T05:57:41;98037.75;;;7.33;81.66
78317;BME280;67572;50.930;18.276;2023-03-31T06:00:45;98039.22;;;7.37;82.06
78317;BME280;67572;50.930;18.276;2023-03-31T06:03:48;98037.94;;;7.42;81.65
78317;BME280;67572;50.930;18.276;2023-03-31T06:06:53;98036.28;;;7.53;81.20
78317;BME280;67572;50.930;18.276;2023-03-31T06:09:59;98037.53;;;7.60;80.63
78317;BME280;67572;50.930;18.276;2023-03-31T06:13:02;98039.28;;;7.72;81.03
78317;BME280;67572;50.930;18.276;2023-03-31T06:16:06;98033.41;;;7.79;80.59
78317;BME280;67572;50.930;18.276;2023-03-31T06:19:10;98028.16;;;7.91;79.47
78317;BME280;67572;50.930;18.276;2023-03-31T06:22:15;98033.69;;;7.99;79.24
78317;BME280;67572;50.930;18.276;2023-03-31T06:25:18;98033.25;;;8.05;79.58
78317;BME280;67572;50.930;18.276;2023-03-31T06:28:23;98038.59;;;8.16;79.08
78317;BME280;67572;50.930;18.276;2023-03-31T06:31:26;98029.31;;;8.22;78.47
78317;BME280;67572;50.930;18.276;2023-03-31T06:34:30;98022.34;;;8.32;77.65
78317;BME280;67572;50.930;18.276;2023-03-31T06:37:35;98023.81;;;8.36;78.20
78317;BME280;67572;50.930;18.276;2023-03-31T06:40:38;98023.28;;;8.31;78.18
78317;BME280;67572;50.930;18.276;2023-03-31T06:43:42;98025.47;;;8.26;78.38
78317;BME280;67572;50.930;18.276;2023-03-31T06:46:45;98025.94;;;8.31;78.46
78317;BME280;67572;50.930;18.276;2023-03-31T06:49:49;98023.81;;;8.36;78.14
78317;BME280;67572;50.930;18.276;2023-03-31T06:52:54;98015.28;;;8.44;78.47
78317;BME280;67572;50.930;18.276;2023-03-31T06:55:57;98022.03;;;8.48;77.89
78317;BME280;67572;50.930;18.276;2023-03-31T06:59:00;98022.28;;;8.56;77.63
78317;BME280;67572;50.930;18.276;2023-03-31T07:02:04;98011.31;;;8.83;77.56
78317;BME280;67572;50.930;18.276;2023-03-31T07:05:08;98017.59;;;8.93;77.22
78317;BME280;67572;50.930;18.276;2023-03-31T07:08:13;98013.22;;;9.14;76.77
78317;BME280;67572;50.930;18.276;2023-03-31T07:11:19;98012.19;;;9.27;75.95
78317;BME280;67572;50.930;18.276;2023-03-31T07:14:22;98002.16;;;9.73;76.03
78317;BME280;67572;50.930;18.276;2023-03-31T07:17:26;98002.13;;;10.06;74.25
78317;BME280;67572;50.930;18.276;2023-03-31T07:20:29;98002.03;;;9.96;73.12
78317;BME280;67572;50.930;18.276;2023-03-31T07:23:35;98005.03;;;10.02;73.19
78317;BME280;67572;50.930;18.276;2023-03-31T07:26:38;97996.50;;;9.99;72.87
78317;BME280;67572;50.930;18.276;2023-03-31T07:29:42;98000.03;;;9.88;72.67
78317;BME280;67572;50.930;18.276;2023-03-31T07:32:46;98005.16;;;10.01;72.90
78317;BME280;67572;50.930;18.276;2023-03-31T07:35:50;97999.53;;;10.15;72.62
78317;BME280;67572;50.930;18.276;2023-03-31T07:39:10;97988.59;;;10.30;71.87
78317;BME280;67572;50.930;18.276;2023-03-31T07:42:13;97990.31;;;10.40;72.31
78317;BME280;67572;50.930;18.276;2023-03-31T07:45:17;97985.81;;;10.62;71.11
78317;BME280;67572;50.930;18.276;2023-03-31T07:48:22;97994.44;;;10.84;70.69
78317;BME280;67572;50.930;18.276;2023-03-31T07:51:26;97990.94;;;10.84;70.01
78317;BME280;67572;50.930;18.276;2023-03-31T07:54:31;97977.63;;;10.84;70.32
78317;BME280;67572;50.930;18.276;2023-03-31T07:57:36;97988.31;;;10.94;70.44
78317;BME280;67572;50.930;18.276;2023-03-31T08:00:40;97989.31;;;11.02;70.15
78317;BME280;67572;50.930;18.276;2023-03-31T08:03:44;97972.66;;;11.10;69.54
78317;BME280;67572;50.930;18.276;2023-03-31T08:06:48;97960.38;;;11.38;69.58
78317;BME280;67572;50.930;18.276;2023-03-31T08:09:54;97957.56;;;11.30;68.61
78317;BME280;67572;50.930;18.276;2023-03-31T08:12:57;97954.78;;;11.31;68.22
78317;BME280;67572;50.930;18.276;2023-03-31T08:16:01;97957.19;;;11.34;68.08
78317;BME280;67572;50.930;18.276;2023-03-31T08:19:05;97945.94;;;11.40;67.85
78317;BME280;67572;50.930;18.276;2023-03-31T08:22:08;97936.56;;;11.36;68.24
78317;BME280;67572;50.930;18.276;2023-03-31T08:25:13;97938.28;;;11.57;67.78
78317;BME280;67572;50.930;18.276;2023-03-31T08:28:17;97942.75;;;11.27;67.58
78317;BME280;67572;50.930;18.276;2023-03-31T08:31:21;97925.66;;;11.49;67.98
78317;BME280;67572;50.930;18.276;2023-03-31T08:34:28;97933.06;;;11.75;67.77
78317;BME280;67572;50.930;18.276;2023-03-31T08:37:32;97928.31;;;11.59;68.11
78317;BME280;67572;50.930;18.276;2023-03-31T08:40:39;97922.13;;;11.78;67.73
78317;BME280;67572;50.930;18.276;2023-03-31T08:43:46;97909.94;;;11.85;67.28
78317;BME280;67572;50.930;18.276;2023-03-31T08:46:51;97906.44;;;11.94;67.33
78317;BME280;67572;50.930;18.276;2023-03-31T08:49:59;97905.03;;;11.90;66.58
78317;BME280;67572;50.930;18.276;2023-03-31T08:53:05;97898.06;;;12.26;66.83
78317;BME280;67572;50.930;18.276;2023-03-31T08:56:15;97894.50;;;11.98;65.69
78317;BME280;67572;50.930;18.276;2023-03-31T08:59:26;97891.81;;;12.45;65.83
78317;BME280;67572;50.930;18.276;2023-03-31T09:02:35;97877.09;;;12.41;65.46
78317;BME280;67572;50.930;18.276;2023-03-31T09:05:49;97879.09;;;12.84;64.07
78317;BME280;67572;50.930;18.276;2023-03-31T09:09:02;97872.16;;;12.73;63.62
78317;BME280;67572;50.930;18.276;2023-03-31T09:12:15;97861.81;;;13.06;63.70
78317;BME280;67572;50.930;18.276;2023-03-31T09:15:25;97858.69;;;13.11;63.46
78317;BME280;67572;50.930;18.276;2023-03-31T09:18:31;97850.28;;;13.59;64.02
78317;BME280;67572;50.930;18.276;2023-03-31T09:21:41;97851.28;;;13.58;62.79
78317;BME280;67572;50.930;18.276;2023-03-31T09:24:49;97848.44;;;13.33;61.07
78317;BME280;67572;50.930;18.276;2023-03-31T09:27:58;97836.84;;;13.25;61.26
78317;BME280;67572;50.930;18.276;2023-03-31T09:31:12;97827.06;;;13.77;60.34
78317;BME280;67572;50.930;18.276;2023-03-31T09:34:23;97822.44;;;13.87;60.36
78317;BME280;67572;50.930;18.276;2023-03-31T09:37:30;97811.22;;;14.10;59.63
78317;BME280;67572;50.930;18.276;2023-03-31T09:40:34;97816.13;;;14.23;58.77
78317;BME280;67572;50.930;18.276;2023-03-31T09:43:40;97811.75;;;14.13;57.73
78317;BME280;67572;50.930;18.276;2023-03-31T09:46:43;97809.59;;;14.51;56.92
78317;BME280;67572;50.930;18.276;2023-03-31T09:49:47;97800.38;;;14.46;57.97
78317;BME280;67572;50.930;18.276;2023-03-31T09:52:57;97795.88;;;14.54;58.39
78317;BME280;67572;50.930;18.276;2023-03-31T09:56:04;97781.97;;;14.51;55.20
78317;BME280;67572;50.930;18.276;2023-03-31T09:59:15;97782.25;;;14.82;55.04
78317;BME280;67572;50.930;18.276;2023-03-31T10:02:33;97769.13;;;14.54;55.19
78317;BME280;67572;50.930;18.276;2023-03-31T10:05:46;97777.81;;;14.56;55.86
78317;BME280;67572;50.930;18.276;2023-03-31T10:08:53;97776.31;;;14.46;54.81
78317;BME280;67572;50.930;18.276;2023-03-31T10:12:02;97776.69;;;14.67;54.47
78317;BME280;67572;50.930;18.276;2023-03-31T10:15:21;97776.50;;;14.60;54.14
78317;BME280;67572;50.930;18.276;2023-03-31T10:18:32;97772.19;;;14.76;55.69
78317;BME280;67572;50.930;18.276;2023-03-31T10:21:37;97761.16;;;15.03;53.56
78317;BME280;67572;50.930;18.276;2023-03-31T10:24:43;97769.00;;;14.88;54.45
78317;BME280;67572;50.930;18.276;2023-03-31T10:27:50;97770.84;;;14.80;53.76
78317;BME280;67572;50.930;18.276;2023-03-31T10:30:57;97766.94;;;14.50;55.35
78317;BME280;67572;50.930;18.276;2023-03-31T10:34:05;97779.25;;;14.42;56.05
78317;BME280;67572;50.930;18.276;2023-03-31T10:37:13;97776.91;;;14.90;55.42
78317;BME280;67572;50.930;18.276;2023-03-31T10:40:24;97759.75;;;14.50;55.60
78317;BME280;67572;50.930;18.276;2023-03-31T10:43:39;97755.03;;;14.36;55.49
78317;BME280;67572;50.930;18.276;2023-03-31T10:46:48;97749.38;;;14.47;56.08
78317;BME280;67572;50.930;18.276;2023-03-31T10:49:56;97760.78;;;14.15;55.98
78317;BME280;67572;50.930;18.276;2023-03-31T10:53:02;97748.94;;;14.18;56.68
78317;BME280;67572;50.930;18.276;2023-03-31T10:56:34;97735.94;;;14.23;55.94
78317;BME280;67572;50.930;18.276;2023-03-31T10:59:52;97745.91;;;14.55;55.85
78317;BME280;67572;50.930;18.276;2023-03-31T11:03:41;97734.06;;;14.74;55.39
78317;BME280;67572;50.930;18.276;2023-03-31T11:06:56;97724.03;;;14.59;54.37
78317;BME280;67572;50.930;18.276;2023-03-31T11:10:19;97731.22;;;14.59;54.55
78317;BME280;67572;50.930;18.276;2023-03-31T11:13:29;97724.38;;;14.89;53.79
78317;BME280;67572;50.930;18.276;2023-03-31T11:16:44;97718.19;;;15.21;53.32
78317;BME280;67572;50.930;18.276;2023-03-31T11:20:04;97700.34;;;15.61;53.35
78317;BME280;67572;50.930;18.276;2023-03-31T11:23:19;97684.00;;;15.31;53.48
78317;BME280;67572;50.930;18.276;2023-03-31T11:26:38;97677.75;;;15.63;52.74
78317;BME280;67572;50.930;18.276;2023-03-31T11:29:48;97670.63;;;16.26;51.95
78317;BME280;67572;50.930;18.276;2023-03-31T11:33:02;97671.03;;;15.75;51.37
78317;BME280;67572;50.930;18.276;2023-03-31T11:36:22;97665.72;;;15.51;53.07
78317;BME280;67572;50.930;18.276;2023-03-31T11:39:41;97667.31;;;15.21;53.42
78317;BME280;67572;50.930;18.276;2023-03-31T11:42:50;97663.75;;;15.37;54.33
78317;BME280;67572;50.930;18.276;2023-03-31T11:46:00;97656.72;;;15.44;53.90
78317;BME280;67572;50.930;18.276;2023-03-31T11:49:14;97643.25;;;15.05;52.80
78317;BME280;67572;50.930;18.276;2023-03-31T11:52:26;97639.41;;;14.99;53.47
78317;BME280;67572;50.930;18.276;2023-03-31T11:55:32;97644.66;;;15.40;54.00
78317;BME280;67572;50.930;18.276;2023-03-31T11:58:43;97634.03;;;15.71;53.33
78317;BME280;67572;50.930;18.276;2023-03-31T12:01:50;97630.84;;;15.75;50.75
78317;BME280;67572;50.930;18.276;2023-03-31T12:04:57;97621.16;;;15.66;51.52
78317;BME280;67572;50.930;18.276;2023-03-31T12:08:06;97610.88;;;15.31;52.93
78317;BME280;67572;50.930;18.276;2023-03-31T12:11:15;97617.34;;;15.52;51.65
78317;BME280;67572;50.930;18.276;2023-03-31T12:14:27;97608.28;;;15.62;50.77
78317;BME280;67572;50.930;18.276;2023-03-31T12:17:32;97611.16;;;15.44;50.82
78317;BME280;67572;50.930;18.276;2023-03-31T12:20:40;97601.22;;;15.13;50.54
78317;BME280;67572;50.930;18.276;2023-03-31T12:23:49;97601.66;;;15.33;50.16
78317;BME280;67572;50.930;18.276;2023-03-31T12:27:02;97590.88;;;15.02;50.72
78317;BME280;67572;50.930;18.276;2023-03-31T12:30:12;97592.56;;;14.95;51.16
78317;BME280;67572;50.930;18.276;2023-03-31T12:33:20;97582.03;;;14.93;52.14
78317;BME280;67572;50.930;18.276;2023-03-31T12:36:41;97584.38;;;14.96;52.19
78317;BME280;67572;50.930;18.276;2023-03-31T12:39:58;97578.06;;;14.81;50.82
78317;BME280;67572;50.930;18.276;2023-03-31T12:43:25;97577.19;;;14.73;51.02
78317;BME280;67572;50.930;18.276;2023-03-31T12:46:55;97573.53;;;14.49;51.04
78317;BME280;67572;50.930;18.276;2023-03-31T12:53:36;97556.81;;;14.31;51.26
78317;BME280;67572;50.930;18.276;2023-03-31T12:57:19;97560.81;;;14.10;52.37
78317;BME280;67572;50.930;18.276;2023-03-31T13:00:25;97554.44;;;14.03;52.89
78317;BME280;67572;50.930;18.276;2023-03-31T13:12:39;97535.06;;;14.42;53.02
78317;BME280;67572;50.930;18.276;2023-03-31T13:15:49;97521.53;;;14.76;53.03
78317;BME280;67572;50.930;18.276;2023-03-31T13:18:55;97510.88;;;14.60;53.98
78317;BME280;67572;50.930;18.276;2023-03-31T13:22:00;97512.72;;;14.51;54.37
78317;BME280;67572;50.930;18.276;2023-03-31T13:25:35;97522.06;;;14.55;55.45
78317;BME280;67572;50.930;18.276;2023-03-31T13:28:42;97515.03;;;14.05;57.24
78317;BME280;67572;50.930;18.276;2023-03-31T13:32:21;97503.34;;;14.39;57.38
78317;BME280;67572;50.930;18.276;2023-03-31T13:35:27;97501.94;;;14.84;55.23
78317;BME280;67572;50.930;18.276;2023-03-31T13:38:43;97484.09;;;14.35;55.57
78317;BME280;67572;50.930;18.276;2023-03-31T13:41:54;97480.59;;;14.35;55.84
78317;BME280;67572;50.930;18.276;2023-03-31T13:45:18;97472.63;;;14.02;56.83
78317;BME280;67572;50.930;18.276;2023-03-31T13:48:38;97466.09;;;14.05;57.55
78317;BME280;67572;50.930;18.276;2023-03-31T13:51:50;97470.28;;;14.07;57.89
78317;BME280;67572;50.930;18.276;2023-03-31T13:55:16;97472.63;;;14.10;56.76
78317;BME280;67572;50.930;18.276;2023-03-31T13:58:38;97460.59;;;14.06;58.00
78317;BME280;67572;50.930;18.276;2023-03-31T14:02:11;97454.75;;;13.86;58.77
78317;BME280;67572;50.930;18.276;2023-03-31T14:05:29;97450.53;;;13.59;59.55
78317;BME280;67572;50.930;18.276;2023-03-31T14:08:46;97462.25;;;13.75;59.94
78317;BME280;67572;50.930;18.276;2023-03-31T14:11:51;97452.38;;;13.59;60.68
78317;BME280;67572;50.930;18.276;2023-03-31T14:14:54;97440.84;;;13.42;61.43
78317;BME280;67572;50.930;18.276;2023-03-31T14:17:59;97444.69;;;13.40;62.24
78317;BME280;67572;50.930;18.276;2023-03-31T14:21:11;97445.53;;;13.40;62.85
78317;BME280;67572;50.930;18.276;2023-03-31T14:24:23;97444.63;;;13.15;64.26
78317;BME280;67572;50.930;18.276;2023-03-31T14:27:40;97434.84;;;13.32;64.42
78317;BME280;67572;50.930;18.276;2023-03-31T14:30:53;97432.25;;;13.14;65.51
78317;BME280;67572;50.930;18.276;2023-03-31T14:34:16;97442.50;;;12.85;64.96
78317;BME280;67572;50.930;18.276;2023-03-31T14:37:22;97429.91;;;12.69;64.97
78317;BME280;67572;50.930;18.276;2023-03-31T14:40:29;97431.47;;;12.80;65.42
78317;BME280;67572;50.930;18.276;2023-03-31T14:43:35;97420.56;;;12.57;66.52
78317;BME280;67572;50.930;18.276;2023-03-31T14:46:40;97428.97;;;11.92;71.73
78317;BME280;67572;50.930;18.276;2023-03-31T14:49:48;97413.75;;;11.84;72.84
78317;BME280;67572;50.930;18.276;2023-03-31T14:53:00;97407.91;;;11.63;75.17
78317;BME280;67572;50.930;18.276;2023-03-31T14:56:07;97406.94;;;11.64;76.21
78317;BME280;67572;50.930;18.276;2023-03-31T14:59:15;97397.25;;;11.63;77.21
78317;BME280;67572;50.930;18.276;2023-03-31T15:02:30;97392.56;;;11.39;77.57
78317;BME280;67572;50.930;18.276;2023-03-31T15:05:40;97387.41;;;11.37;77.50
78317;BME280;67572;50.930;18.276;2023-03-31T15:08:52;97379.66;;;11.44;77.64
78317;BME280;67572;50.930;18.276;2023-03-31T15:12:00;97373.00;;;11.48;77.79
78317;BME280;67572;50.930;18.276;2023-03-31T15:15:06;97365.88;;;11.31;77.74
78317;BME280;67572;50.930;18.276;2023-03-31T15:18:10;97365.66;;;11.42;78.10
78317;BME280;67572;50.930;18.276;2023-03-31T15:21:24;97358.53;;;11.43;77.31
78317;BME280;67572;50.930;18.276;2023-03-31T15:24:28;97355.91;;;11.33;77.94
78317;BME280;67572;50.930;18.276;2023-03-31T15:27:37;97341.56;;;11.26;78.26
78317;BME280;67572;50.930;18.276;2023-03-31T15:30:44;97344.84;;;11.02;78.97
78317;BME280;67572;50.930;18.276;2023-03-31T15:34:16;97331.41;;;11.21;78.88
78317;BME280;67572;50.930;18.276;2023-03-31T15:37:26;97334.34;;;11.36;78.68
78317;BME280;67572;50.930;18.276;2023-03-31T15:40:34;97321.44;;;11.23;79.00
78317;BME280;67572;50.930;18.276;2023-03-31T15:43:46;97325.53;;;11.35;79.40
78317;BME280;67572;50.930;18.276;2023-03-31T15:46:58;97329.44;;;11.05;80.18
78317;BME280;67572;50.930;18.276;2023-03-31T15:50:09;97337.78;;;11.28;80.12
78317;BME280;67572;50.930;18.276;2023-03-31T15:53:29;97323.13;;;11.06;80.64
78317;BME280;67572;50.930;18.276;2023-03-31T15:56:39;97324.25;;;11.04;80.88
78317;BME280;67572;50.930;18.276;2023-03-31T15:59:46;97325.66;;;10.80;81.02
78317;BME280;67572;50.930;18.276;2023-03-31T16:02:58;97331.00;;;10.80;80.88
78317;BME280;67572;50.930;18.276;2023-03-31T16:06:06;97333.88;;;10.69;81.16
78317;BME280;67572;50.930;18.276;2023-03-31T16:09:18;97335.38;;;10.72;80.70
78317;BME280;67572;50.930;18.276;2023-03-31T16:12:28;97339.59;;;10.74;80.62
78317;BME280;67572;50.930;18.276;2023-03-31T16:15:35;97335.47;;;10.62;81.13
78317;BME280;67572;50.930;18.276;2023-03-31T16:18:42;97340.47;;;10.65;81.10
78317;BME280;67572;50.930;18.276;2023-03-31T16:21:50;97333.31;;;10.48;81.87
78317;BME280;67572;50.930;18.276;2023-03-31T16:24:58;97328.53;;;10.51;82.10
78317;BME280;67572;50.930;18.276;2023-03-31T16:28:01;97332.22;;;10.41;82.17
78317;BME280;67572;50.930;18.276;2023-03-31T16:31:26;97323.00;;;10.45;82.37
78317;BME280;67572;50.930;18.276;2023-03-31T16:34:30;97315.00;;;10.45;82.52
78317;BME280;67572;50.930;18.276;2023-03-31T16:37:34;97320.50;;;10.34;82.83
78317;BME280;67572;50.930;18.276;2023-03-31T16:40:40;97323.06;;;10.25;83.29
78317;BME280;67572;50.930;18.276;2023-03-31T16:43:44;97330.88;;;10.37;82.99
78317;BME280;67572;50.930;18.276;2023-03-31T16:46:48;97316.75;;;10.36;82.46
78317;BME280;67572;50.930;18.276;2023-03-31T16:49:52;97316.13;;;10.42;81.61
78317;BME280;67572;50.930;18.276;2023-03-31T16:52:55;97309.31;;;10.40;80.85
78317;BME280;67572;50.930;18.276;2023-03-31T16:56:03;97303.84;;;10.41;79.73
78317;BME280;67572;50.930;18.276;2023-03-31T16:59:08;97298.75;;;10.30;78.92